createdAt,value
2018-12-16T00:00:10.388Z,20.34
2018-12-16T00:01:10.388Z,20.40
2018-12-16T00:02:10.385Z,20.39
2018-12-16T00:03:10.392Z,20.36
2018-12-16T00:04:10.396Z,20.40
2018-12-16T00:05:10.396Z,20.32
2018-12-16T00:06:10.396Z,20.40
2018-12-16T00:07:10.404Z,20.34
2018-12-16T00:08:10.407Z,20.39
2018-12-16T00:09:10.406Z,20.40
2018-12-16T00:10:10.411Z,20.41
2018-12-16T00:11:10.416Z,20.36
2018-12-16T00:12:10.414Z,20.32
2018-12-16T00:13:10.421Z,20.39
2018-12-16T00:14:10.433Z,20.32
2018-12-16T00:15:10.482Z,20.40
2018-12-16T00:16:10.424Z,20.39
2018-12-16T00:17:10.431Z,20.36
2018-12-16T00:18:10.432Z,20.40
2018-12-16T00:19:10.434Z,20.36
2018-12-16T00:20:10.441Z,20.29
2018-12-16T00:21:10.440Z,20.39
2018-12-16T00:22:10.444Z,20.36
2018-12-16T00:23:10.445Z,20.37
2018-12-16T00:24:10.453Z,20.37
2018-12-16T00:25:10.456Z,20.28
2018-12-16T00:26:10.453Z,20.37
2018-12-16T00:27:10.457Z,20.28
2018-12-16T00:28:10.460Z,20.32
2018-12-16T00:29:10.459Z,20.32
2018-12-16T00:30:10.467Z,20.28
2018-12-16T00:31:10.475Z,20.36
2018-12-16T00:32:10.469Z,20.25
2018-12-16T00:33:10.474Z,20.28
2018-12-16T00:34:10.475Z,20.29
2018-12-16T00:35:10.477Z,20.26
2018-12-16T00:36:10.478Z,20.28
2018-12-16T00:37:10.478Z,20.31
2018-12-16T00:38:10.488Z,20.28
2018-12-16T00:39:10.489Z,20.32
2018-12-16T00:40:10.494Z,20.25
2018-12-16T00:41:10.493Z,20.28
2018-12-16T00:42:10.495Z,20.32
2018-12-16T00:43:10.499Z,20.25
2018-12-16T00:44:10.506Z,20.28
2018-12-16T00:45:10.508Z,20.29
2018-12-16T00:46:10.513Z,20.32
2018-12-16T00:47:10.512Z,20.29
2018-12-16T00:48:10.513Z,20.28
2018-12-16T00:49:10.513Z,20.21
2018-12-16T00:50:10.521Z,20.31
2018-12-16T00:51:10.521Z,20.28
2018-12-16T00:52:10.522Z,20.24
2018-12-16T00:53:10.520Z,20.22
2018-12-16T00:54:10.524Z,20.32
2018-12-16T00:55:10.534Z,20.18
2018-12-16T00:56:10.532Z,20.26
2018-12-16T00:57:10.543Z,20.28
2018-12-16T00:58:10.539Z,20.26
2018-12-16T00:59:10.544Z,20.21
2018-12-16T01:00:10.545Z,20.26
2018-12-16T01:01:10.548Z,20.31
2018-12-16T01:02:10.552Z,20.32
2018-12-16T01:03:10.549Z,20.26
2018-12-16T01:04:10.555Z,20.22
2018-12-16T01:05:10.561Z,20.22
2018-12-16T01:06:10.565Z,20.14
2018-12-16T01:07:10.559Z,20.19
2018-12-16T01:08:10.566Z,20.22
2018-12-16T01:09:10.570Z,20.21
2018-12-16T01:10:10.577Z,20.21
2018-12-16T01:11:10.577Z,20.24
2018-12-16T01:12:10.587Z,20.22
2018-12-16T01:13:10.584Z,20.22
2018-12-16T01:14:10.577Z,20.26
2018-12-16T01:15:10.583Z,20.18
2018-12-16T01:16:10.590Z,20.29
2018-12-16T01:17:10.597Z,20.21
2018-12-16T01:18:10.595Z,20.31
2018-12-16T01:19:10.597Z,20.19
2018-12-16T01:20:10.669Z,20.31
2018-12-16T01:21:10.597Z,20.22
2018-12-16T01:22:10.604Z,20.19
2018-12-16T01:23:10.610Z,20.26
2018-12-16T01:24:10.609Z,20.32
2018-12-16T01:25:10.611Z,20.21
2018-12-16T01:26:10.616Z,20.19
2018-12-16T01:27:10.623Z,20.22
2018-12-16T01:28:10.623Z,20.21
2018-12-16T01:29:10.623Z,20.21
2018-12-16T01:30:10.630Z,20.31
2018-12-16T01:31:10.633Z,20.26
2018-12-16T01:32:10.635Z,20.25
2018-12-16T01:33:10.631Z,20.26
2018-12-16T01:34:10.640Z,20.24
2018-12-16T01:35:10.639Z,20.28
2018-12-16T01:36:10.643Z,20.28
2018-12-16T01:37:10.644Z,20.28
2018-12-16T01:38:10.649Z,20.26
2018-12-16T01:39:10.654Z,20.28
2018-12-16T01:40:10.650Z,20.25
2018-12-16T01:41:10.653Z,20.19
2018-12-16T01:42:10.658Z,20.31
2018-12-16T01:43:10.658Z,20.24
2018-12-16T01:44:10.664Z,20.32
2018-12-16T01:45:10.661Z,20.25
2018-12-16T01:46:10.670Z,20.31
2018-12-16T01:47:10.669Z,20.28
2018-12-16T01:48:10.672Z,20.31
2018-12-16T01:49:10.674Z,20.21
2018-12-16T01:50:10.690Z,20.32
2018-12-16T01:51:10.681Z,20.19
2018-12-16T01:52:10.686Z,20.28
2018-12-16T01:53:10.687Z,20.29
2018-12-16T01:54:10.695Z,20.26
2018-12-16T01:55:10.686Z,20.18
2018-12-16T01:56:10.694Z,20.22
2018-12-16T01:57:10.694Z,20.32
2018-12-16T01:58:10.698Z,20.21
2018-12-16T01:59:10.701Z,20.26
2018-12-16T02:00:10.704Z,20.24
2018-12-16T02:01:10.707Z,20.29
2018-12-16T02:02:10.711Z,20.24
2018-12-16T02:03:10.717Z,20.24
2018-12-16T02:04:10.715Z,20.22
2018-12-16T02:05:10.715Z,20.21
2018-12-16T02:06:10.719Z,20.21
2018-12-16T02:07:10.727Z,20.24
2018-12-16T02:08:10.733Z,20.22
2018-12-16T02:09:10.731Z,20.19
2018-12-16T02:10:10.736Z,20.19
2018-12-16T02:11:10.733Z,20.21
2018-12-16T02:12:10.733Z,20.28
2018-12-16T02:13:10.744Z,20.22
2018-12-16T02:14:10.743Z,20.19
2018-12-16T02:15:10.748Z,20.24
2018-12-16T02:16:10.749Z,20.21
2018-12-16T02:17:10.755Z,20.26
2018-12-16T02:18:10.757Z,20.26
2018-12-16T02:19:10.751Z,20.19
2018-12-16T02:20:10.759Z,20.24
2018-12-16T02:21:10.759Z,20.19
2018-12-16T02:22:10.763Z,20.24
2018-12-16T02:23:10.769Z,20.19
2018-12-16T02:24:10.770Z,20.22
2018-12-16T02:25:10.772Z,20.24
2018-12-16T02:26:10.770Z,20.21
2018-12-16T02:27:10.777Z,20.19
2018-12-16T02:28:10.783Z,20.26
2018-12-16T02:29:10.779Z,20.19
2018-12-16T02:30:10.785Z,20.21
2018-12-16T02:31:10.788Z,20.19
2018-12-16T02:32:10.790Z,20.25
2018-12-16T02:33:10.794Z,20.22
2018-12-16T02:34:10.800Z,20.25
2018-12-16T02:35:10.799Z,20.22
2018-12-16T02:36:10.806Z,20.26
2018-12-16T02:37:10.809Z,20.18
2018-12-16T02:38:10.806Z,20.25
2018-12-16T02:39:10.816Z,20.18
2018-12-16T02:40:10.815Z,20.19
2018-12-16T02:41:10.816Z,20.24
2018-12-16T02:42:10.818Z,20.13
2018-12-16T02:43:10.821Z,20.25
2018-12-16T02:44:10.827Z,20.21
2018-12-16T02:45:10.822Z,20.19
2018-12-16T02:46:10.832Z,20.19
2018-12-16T02:47:10.836Z,20.13
2018-12-16T02:48:10.833Z,20.22
2018-12-16T02:49:10.834Z,20.25
2018-12-16T02:50:10.838Z,20.24
2018-12-16T02:51:10.840Z,20.22
2018-12-16T02:52:10.844Z,20.14
2018-12-16T02:53:10.845Z,20.28
2018-12-16T02:54:10.851Z,20.24
2018-12-16T02:55:10.861Z,20.25
2018-12-16T02:56:11.553Z,20.25
2018-12-16T02:57:10.867Z,20.21
2018-12-16T02:58:10.894Z,20.24
2018-12-16T02:59:10.859Z,20.21
2018-12-16T03:00:10.863Z,20.21
2018-12-16T03:01:10.868Z,20.25
2018-12-16T03:02:10.869Z,20.24
2018-12-16T03:03:10.876Z,20.21
2018-12-16T03:04:10.877Z,20.19
2018-12-16T03:05:10.880Z,20.19
2018-12-16T03:06:10.876Z,20.24
2018-12-16T03:07:10.881Z,20.26
2018-12-16T03:08:10.891Z,20.26
2018-12-16T03:09:10.887Z,20.19
2018-12-16T03:10:10.893Z,20.26
2018-12-16T03:11:10.895Z,20.22
2018-12-16T03:12:10.897Z,20.16
2018-12-16T03:13:10.896Z,20.21
2018-12-16T03:14:10.897Z,20.21
2018-12-16T03:15:10.907Z,20.24
2018-12-16T03:16:10.911Z,20.22
2018-12-16T03:17:10.909Z,20.25
2018-12-16T03:18:10.913Z,20.19
2018-12-16T03:19:10.919Z,20.24
2018-12-16T03:20:10.921Z,20.28
2018-12-16T03:21:10.926Z,20.21
2018-12-16T03:22:10.932Z,20.26
2018-12-16T03:23:12.524Z,20.19
2018-12-16T03:24:10.929Z,20.19
2018-12-16T03:25:10.931Z,20.26
2018-12-16T03:26:10.933Z,20.26
2018-12-16T03:27:10.937Z,20.26
2018-12-16T03:28:10.940Z,20.19
2018-12-16T03:29:10.951Z,20.21
2018-12-16T03:30:10.945Z,20.19
2018-12-16T03:31:10.946Z,20.26
2018-12-16T03:32:10.958Z,20.21
2018-12-16T03:33:10.954Z,20.21
2018-12-16T03:34:10.953Z,20.21
2018-12-16T03:35:10.962Z,20.14
2018-12-16T03:36:10.961Z,20.13
2018-12-16T03:37:10.959Z,20.19
2018-12-16T03:38:10.966Z,20.13
2018-12-16T03:39:10.970Z,20.14
2018-12-16T03:40:10.968Z,20.14
2018-12-16T03:41:10.979Z,20.18
2018-12-16T03:42:10.981Z,20.16
2018-12-16T03:43:10.978Z,20.13
2018-12-16T03:44:10.988Z,20.21
2018-12-16T03:45:11.001Z,20.21
2018-12-16T03:46:10.997Z,20.22
2018-12-16T03:47:10.989Z,20.14
2018-12-16T03:48:10.995Z,20.16
2018-12-16T03:49:10.995Z,20.14
2018-12-16T03:50:10.997Z,20.19
2018-12-16T03:51:10.996Z,20.16
2018-12-16T03:52:10.998Z,20.14
2018-12-16T03:53:11.007Z,20.19
2018-12-16T03:54:11.011Z,20.11
2018-12-16T03:55:11.014Z,20.13
2018-12-16T03:56:11.011Z,20.16
2018-12-16T03:57:11.016Z,20.11
2018-12-16T03:58:11.013Z,20.11
2018-12-16T03:59:11.023Z,20.11
2018-12-16T04:00:11.023Z,20.14
2018-12-16T04:01:11.024Z,20.13
2018-12-16T04:02:11.025Z,20.14
2018-12-16T04:03:11.043Z,20.07
2018-12-16T04:04:11.033Z,20.14
2018-12-16T04:05:11.045Z,20.14
2018-12-16T04:06:11.041Z,20.13
2018-12-16T04:07:11.044Z,20.19
2018-12-16T04:08:11.043Z,20.21
2018-12-16T04:09:11.043Z,20.14
2018-12-16T04:10:11.055Z,20.14
2018-12-16T04:11:11.050Z,20.11
2018-12-16T04:12:11.057Z,20.09
2018-12-16T04:13:11.056Z,20.18
2018-12-16T04:14:11.064Z,20.14
2018-12-16T04:15:11.048Z,20.10
2018-12-16T04:16:11.068Z,20.11
2018-12-16T04:17:11.067Z,20.03
2018-12-16T04:18:11.074Z,20.09
2018-12-16T04:19:11.073Z,20.16
2018-12-16T04:20:11.079Z,20.10
2018-12-16T04:21:11.077Z,20.10
2018-12-16T04:22:11.083Z,20.16
2018-12-16T04:23:11.083Z,20.11
2018-12-16T04:24:11.091Z,20.07
2018-12-16T04:25:11.093Z,20.09
2018-12-16T04:26:11.096Z,20.11
2018-12-16T04:27:11.092Z,20.07
2018-12-16T04:28:11.101Z,20.14
2018-12-16T04:29:11.105Z,20.09
2018-12-16T04:30:11.102Z,20.09
2018-12-16T04:31:11.114Z,20.06
2018-12-16T04:32:11.109Z,20.07
2018-12-16T04:33:11.114Z,20.09
2018-12-16T04:34:11.123Z,20.06
2018-12-16T04:35:11.117Z,20.11
2018-12-16T04:36:11.119Z,20.04
2018-12-16T04:37:11.116Z,20.07
2018-12-16T04:38:11.126Z,20.07
2018-12-16T04:39:11.124Z,20.06
2018-12-16T04:40:11.126Z,20.04
2018-12-16T04:41:11.132Z,20.03
2018-12-16T04:42:11.133Z,20.11
2018-12-16T04:43:11.140Z,20.07
2018-12-16T04:44:11.140Z,20.09
2018-12-16T04:45:11.143Z,20.07
2018-12-16T04:46:11.150Z,20.11
2018-12-16T04:47:11.144Z,20.10
2018-12-16T04:48:11.152Z,20.09
2018-12-16T04:49:11.154Z,20.06
2018-12-16T04:50:11.158Z,20.09
2018-12-16T04:51:11.164Z,20.07
2018-12-16T04:52:11.153Z,20.03
2018-12-16T04:53:11.167Z,20.09
2018-12-16T04:54:11.162Z,20.10
2018-12-16T04:55:11.173Z,20.09
2018-12-16T04:56:11.175Z,20.07
2018-12-16T04:57:11.174Z,20.10
2018-12-16T04:58:11.178Z,20.09
2018-12-16T04:59:11.176Z,20.09
2018-12-16T05:00:11.176Z,20.07
2018-12-16T05:01:11.189Z,20.09
2018-12-16T05:02:11.186Z,20.06
2018-12-16T05:03:11.190Z,20.06
2018-12-16T05:04:11.194Z,20.07
2018-12-16T05:05:11.194Z,20.09
2018-12-16T05:06:11.196Z,20.09
2018-12-16T05:07:11.200Z,20.10
2018-12-16T05:08:11.196Z,20.09
2018-12-16T05:09:11.204Z,20.09
2018-12-16T05:10:11.207Z,20.09
2018-12-16T05:11:11.207Z,20.11
2018-12-16T05:12:11.219Z,20.06
2018-12-16T05:13:11.214Z,20.06
2018-12-16T05:14:11.223Z,20.03
2018-12-16T05:15:11.222Z,20.07
2018-12-16T05:16:11.229Z,20.04
2018-12-16T05:17:11.234Z,20.04
2018-12-16T05:18:11.223Z,20.13
2018-12-16T05:19:11.232Z,20.06
2018-12-16T05:20:11.234Z,20.09
2018-12-16T05:21:11.235Z,20.04
2018-12-16T05:22:11.233Z,20.11
2018-12-16T05:23:11.239Z,20.11
2018-12-16T05:24:11.243Z,20.10
2018-12-16T05:25:11.249Z,20.06
2018-12-16T05:26:11.243Z,20.07
2018-12-16T05:27:11.249Z,20.11
2018-12-16T05:28:11.251Z,20.07
2018-12-16T05:29:11.259Z,20.09
2018-12-16T05:30:11.257Z,20.07
2018-12-16T05:31:11.261Z,20.06
2018-12-16T05:32:11.263Z,20.04
2018-12-16T05:33:11.261Z,20.07
2018-12-16T05:34:11.274Z,20.11
2018-12-16T05:35:11.273Z,20.10
2018-12-16T05:36:11.280Z,20.09
2018-12-16T05:37:11.281Z,20.07
2018-12-16T05:38:11.279Z,20.07
2018-12-16T05:39:11.279Z,20.07
2018-12-16T05:40:11.284Z,20.04
2018-12-16T05:41:11.285Z,20.06
2018-12-16T05:42:11.302Z,20.06
2018-12-16T05:43:11.288Z,20.07
2018-12-16T05:44:11.313Z,20.09
2018-12-16T05:45:11.295Z,20.11
2018-12-16T05:46:11.299Z,20.04
2018-12-16T05:47:11.300Z,20.00
2018-12-16T05:48:11.305Z,20.02
2018-12-16T05:49:11.307Z,20.00
2018-12-16T05:50:11.309Z,20.09
2018-12-16T05:51:11.314Z,20.07
2018-12-16T05:52:11.312Z,20.04
2018-12-16T05:53:11.312Z,20.04
2018-12-16T05:54:11.320Z,19.99
2018-12-16T05:55:11.325Z,20.02
2018-12-16T05:56:11.325Z,20.06
2018-12-16T05:57:11.327Z,20.06
2018-12-16T05:58:11.331Z,20.04
2018-12-16T05:59:11.338Z,20.07
2018-12-16T06:00:11.330Z,20.03
2018-12-16T06:01:11.344Z,19.99
2018-12-16T06:02:11.339Z,20.03
2018-12-16T06:03:11.343Z,19.99
2018-12-16T06:04:11.351Z,20.04
2018-12-16T06:05:11.347Z,20.04
2018-12-16T06:06:11.352Z,20.00
2018-12-16T06:07:11.349Z,19.96
2018-12-16T06:08:11.351Z,20.04
2018-12-16T06:09:11.356Z,20.02
2018-12-16T06:10:11.363Z,20.00
2018-12-16T06:11:11.358Z,19.91
2018-12-16T06:12:11.369Z,20.02
2018-12-16T06:13:11.370Z,20.00
2018-12-16T06:14:11.374Z,20.02
2018-12-16T06:15:11.369Z,20.09
2018-12-16T06:16:11.373Z,20.02
2018-12-16T06:17:11.379Z,19.96
2018-12-16T06:18:11.382Z,20.03
2018-12-16T06:19:11.381Z,19.99
2018-12-16T06:20:11.383Z,19.94
2018-12-16T06:21:11.385Z,20.00
2018-12-16T06:22:11.387Z,20.07
2018-12-16T06:23:11.393Z,20.00
2018-12-16T06:24:11.399Z,19.99
2018-12-16T06:25:11.405Z,19.94
2018-12-16T06:26:11.401Z,20.03
2018-12-16T06:27:11.402Z,19.96
2018-12-16T06:28:11.405Z,20.04
2018-12-16T06:29:11.405Z,20.02
2018-12-16T06:30:11.405Z,20.00
2018-12-16T06:31:11.415Z,20.06
2018-12-16T06:32:11.413Z,19.99
2018-12-16T06:33:11.414Z,19.96
2018-12-16T06:34:11.421Z,20.03
2018-12-16T06:35:11.421Z,20.00
2018-12-16T06:36:11.423Z,19.99
2018-12-16T06:37:11.433Z,20.00
2018-12-16T06:38:11.435Z,20.02
2018-12-16T06:39:11.431Z,20.06
2018-12-16T06:40:11.433Z,20.03
2018-12-16T06:41:11.439Z,20.07
2018-12-16T06:42:11.444Z,20.02
2018-12-16T06:43:11.441Z,20.00
2018-12-16T06:44:11.443Z,20.00
2018-12-16T06:45:11.451Z,20.03
2018-12-16T06:46:11.452Z,20.06
2018-12-16T06:47:11.449Z,20.02
2018-12-16T06:48:11.465Z,20.03
2018-12-16T06:49:11.457Z,20.04
2018-12-16T06:50:11.466Z,20.03
2018-12-16T06:51:11.465Z,20.04
2018-12-16T06:52:11.465Z,20.00
2018-12-16T06:53:11.465Z,20.00
2018-12-16T06:54:11.472Z,20.03
2018-12-16T06:55:11.475Z,20.06
2018-12-16T06:56:11.475Z,20.07
2018-12-16T06:57:11.475Z,20.02
2018-12-16T06:58:11.477Z,20.03
2018-12-16T06:59:11.481Z,20.07
2018-12-16T07:00:11.483Z,20.06
2018-12-16T07:01:11.487Z,20.06
2018-12-16T07:02:11.485Z,19.96
2018-12-16T07:03:11.493Z,19.95
2018-12-16T07:04:11.497Z,19.99
2018-12-16T07:05:11.507Z,20.00
2018-12-16T07:06:11.501Z,19.94
2018-12-16T07:07:11.503Z,19.96
2018-12-16T07:08:11.508Z,20.02
2018-12-16T07:09:11.509Z,20.04
2018-12-16T07:10:11.510Z,20.03
2018-12-16T07:11:11.518Z,20.02
2018-12-16T07:12:11.514Z,20.00
2018-12-16T07:13:11.523Z,19.91
2018-12-16T07:14:11.540Z,20.00
2018-12-16T07:15:11.524Z,19.95
2018-12-16T07:16:11.563Z,19.96
2018-12-16T07:17:11.562Z,19.99
2018-12-16T07:18:11.563Z,19.94
2018-12-16T07:19:11.528Z,20.06
2018-12-16T07:20:11.535Z,19.96
2018-12-16T07:21:11.532Z,19.96
2018-12-16T07:22:11.568Z,19.91
2018-12-16T07:23:11.540Z,19.99
2018-12-16T07:24:11.547Z,19.99
2018-12-16T07:25:11.559Z,20.00
2018-12-16T07:26:11.565Z,20.03
2018-12-16T07:27:11.553Z,20.03
2018-12-16T07:28:11.559Z,20.02
2018-12-16T07:29:11.559Z,20.07
2018-12-16T07:30:11.564Z,20.03
2018-12-16T07:31:11.588Z,20.07
2018-12-16T07:32:11.586Z,20.06
2018-12-16T07:33:11.571Z,20.13
2018-12-16T07:34:11.571Z,20.14
2018-12-16T07:35:11.641Z,20.14
2018-12-16T07:36:11.611Z,20.14
2018-12-16T07:37:11.583Z,20.21
2018-12-16T07:38:11.582Z,20.25
2018-12-16T07:39:11.607Z,20.18
2018-12-16T07:40:11.612Z,20.19
2018-12-16T07:41:11.623Z,20.28
2018-12-16T07:42:11.608Z,20.40
2018-12-16T07:43:11.607Z,20.32
2018-12-16T07:44:11.643Z,20.36
2018-12-16T07:45:11.595Z,20.37
2018-12-16T07:46:11.619Z,20.41
2018-12-16T07:47:11.616Z,20.44
2018-12-16T07:48:11.649Z,20.52
2018-12-16T07:49:11.609Z,20.51
2018-12-16T07:50:11.609Z,20.51
2018-12-16T07:51:11.617Z,20.62
2018-12-16T07:52:11.630Z,20.63
2018-12-16T07:53:11.617Z,20.56
2018-12-16T07:54:16.087Z,20.62
2018-12-16T07:55:11.622Z,20.69
2018-12-16T07:56:11.623Z,20.80
2018-12-16T07:57:11.627Z,20.65
2018-12-16T07:58:11.647Z,20.74
2018-12-16T07:59:11.669Z,20.72
2018-12-16T08:00:11.637Z,20.70
2018-12-16T08:01:11.656Z,20.84
2018-12-16T08:02:11.648Z,20.81
2018-12-16T08:03:11.660Z,20.80
2018-12-16T08:04:11.664Z,20.92
2018-12-16T08:05:11.674Z,20.84
2018-12-16T08:06:11.661Z,20.97
2018-12-16T08:07:11.660Z,21.00
2018-12-16T08:08:11.657Z,21.00
2018-12-16T08:09:11.668Z,21.02
2018-12-16T08:10:11.667Z,20.97
2018-12-16T08:11:11.670Z,21.02
2018-12-16T08:12:11.671Z,21.07
2018-12-16T08:13:11.672Z,21.00
2018-12-16T08:14:11.679Z,21.07
2018-12-16T08:15:11.681Z,21.11
2018-12-16T08:16:11.687Z,21.15
2018-12-16T08:17:11.689Z,21.15
2018-12-16T08:18:11.689Z,21.20
2018-12-16T08:19:11.697Z,21.24
2018-12-16T08:20:11.695Z,21.17
2018-12-16T08:21:11.701Z,21.18
2018-12-16T08:22:11.705Z,21.18
2018-12-16T08:23:11.764Z,21.18
2018-12-16T08:24:11.710Z,21.29
2018-12-16T08:25:11.709Z,21.27
2018-12-16T08:26:11.715Z,21.22
2018-12-16T08:27:11.721Z,21.30
2018-12-16T08:28:11.724Z,21.25
2018-12-16T08:29:11.739Z,21.29
2018-12-16T08:30:11.729Z,21.32
2018-12-16T08:31:11.737Z,21.29
2018-12-16T08:32:11.736Z,21.35
2018-12-16T08:33:11.751Z,21.35
2018-12-16T08:34:11.740Z,21.32
2018-12-16T08:35:11.744Z,21.25
2018-12-16T08:36:11.751Z,21.24
2018-12-16T08:37:11.757Z,21.29
2018-12-16T08:38:11.751Z,21.27
2018-12-16T08:39:11.757Z,21.30
2018-12-16T08:40:11.759Z,21.30
2018-12-16T08:41:11.765Z,21.32
2018-12-16T08:42:12.270Z,21.37
2018-12-16T08:43:11.774Z,21.33
2018-12-16T08:44:11.773Z,21.37
2018-12-16T08:45:11.776Z,21.40
2018-12-16T08:46:11.779Z,21.32
2018-12-16T08:47:11.796Z,21.37
2018-12-16T08:48:11.797Z,21.32
2018-12-16T08:49:11.789Z,21.30
2018-12-16T08:50:11.791Z,21.25
2018-12-16T08:51:11.800Z,21.33
2018-12-16T08:52:11.797Z,21.29
2018-12-16T08:53:11.804Z,21.37
2018-12-16T08:54:11.806Z,21.33
2018-12-16T08:55:11.818Z,21.35
2018-12-16T08:56:11.815Z,21.30
2018-12-16T08:57:11.818Z,21.36
2018-12-16T08:58:11.822Z,21.32
2018-12-16T08:59:11.826Z,21.36
2018-12-16T09:00:11.825Z,21.29
2018-12-16T09:01:11.830Z,21.29
2018-12-16T09:02:11.830Z,21.29
2018-12-16T09:03:11.836Z,21.32
2018-12-16T09:04:11.834Z,21.30
2018-12-16T09:05:11.852Z,21.33
2018-12-16T09:06:11.847Z,21.35
2018-12-16T09:07:11.853Z,21.35
2018-12-16T09:08:11.853Z,21.25
2018-12-16T09:09:11.853Z,21.32
2018-12-16T09:10:11.859Z,21.30
2018-12-16T09:11:11.864Z,21.32
2018-12-16T09:12:11.866Z,21.29
2018-12-16T09:13:11.869Z,21.25
2018-12-16T09:14:11.871Z,21.29
2018-12-16T09:15:11.877Z,21.32
2018-12-16T09:16:11.896Z,21.30
2018-12-16T09:17:11.889Z,21.36
2018-12-16T09:18:11.888Z,21.27
2018-12-16T09:19:11.896Z,21.25
2018-12-16T09:20:11.891Z,21.30
2018-12-16T09:21:11.896Z,21.35
2018-12-16T09:22:11.898Z,21.33
2018-12-16T09:23:11.898Z,21.35
2018-12-16T09:24:11.908Z,21.32
2018-12-16T09:25:11.914Z,21.30
2018-12-16T09:26:11.912Z,21.29
2018-12-16T09:27:11.914Z,21.33
2018-12-16T09:28:11.918Z,21.29
2018-12-16T09:29:11.925Z,21.30
2018-12-16T09:30:11.924Z,21.27
2018-12-16T09:31:11.926Z,21.29
2018-12-16T09:32:11.933Z,21.24
2018-12-16T09:33:11.936Z,21.24
2018-12-16T09:34:11.942Z,21.22
2018-12-16T09:35:11.941Z,21.21
2018-12-16T09:36:11.948Z,21.14
2018-12-16T09:37:11.961Z,21.24
2018-12-16T09:38:11.952Z,21.15
2018-12-16T09:39:11.954Z,21.24
2018-12-16T09:40:11.956Z,21.20
2018-12-16T09:41:11.955Z,21.06
2018-12-16T09:42:11.968Z,21.14
2018-12-16T09:43:11.964Z,21.18
2018-12-16T09:44:11.975Z,21.17
2018-12-16T09:45:11.974Z,21.17
2018-12-16T09:46:11.984Z,21.06
2018-12-16T09:47:11.981Z,21.06
2018-12-16T09:48:11.983Z,21.05
2018-12-16T09:49:11.983Z,21.12
2018-12-16T09:50:11.989Z,21.11
2018-12-16T09:51:11.997Z,21.07
2018-12-16T09:52:11.995Z,21.02
2018-12-16T09:53:11.997Z,21.20
2018-12-16T09:54:12.092Z,21.09
2018-12-16T09:55:12.007Z,21.06
2018-12-16T09:56:12.016Z,21.11
2018-12-16T09:57:12.010Z,21.17
2018-12-16T09:58:12.016Z,21.20
2018-12-16T09:59:12.020Z,21.20
2018-12-16T10:00:12.030Z,21.03
2018-12-16T10:01:12.024Z,21.18
2018-12-16T10:02:12.033Z,21.21
2018-12-16T10:03:12.030Z,21.20
2018-12-16T10:04:12.033Z,21.20
2018-12-16T10:05:12.035Z,21.22
2018-12-16T10:06:12.037Z,21.14
2018-12-16T10:07:12.045Z,21.21
2018-12-16T10:08:12.051Z,21.20
2018-12-16T10:09:12.047Z,21.24
2018-12-16T10:10:12.054Z,21.18
2018-12-16T10:11:12.057Z,21.17
2018-12-16T10:12:12.059Z,21.22
2018-12-16T10:13:12.062Z,21.25
2018-12-16T10:14:12.077Z,21.35
2018-12-16T10:15:12.082Z,21.30
2018-12-16T10:16:12.079Z,21.35
2018-12-16T10:17:12.077Z,21.25
2018-12-16T10:18:12.083Z,21.36
2018-12-16T10:19:12.080Z,21.25
2018-12-16T10:20:12.086Z,21.32
2018-12-16T10:21:12.104Z,21.29
2018-12-16T10:22:12.096Z,21.33
2018-12-16T10:23:12.087Z,21.27
2018-12-16T10:24:12.104Z,21.32
2018-12-16T10:25:12.094Z,21.40
2018-12-16T10:26:12.098Z,21.32
2018-12-16T10:27:12.141Z,21.39
2018-12-16T10:28:12.116Z,21.39
2018-12-16T10:29:12.806Z,21.29
2018-12-16T10:30:12.120Z,21.32
2018-12-16T10:31:12.252Z,21.27
2018-12-16T10:32:12.126Z,21.32
2018-12-16T10:33:12.188Z,21.37
2018-12-16T10:34:12.134Z,21.43
2018-12-16T10:35:12.138Z,21.39
2018-12-16T10:36:12.154Z,21.39
2018-12-16T10:37:12.248Z,21.37
2018-12-16T10:38:12.143Z,21.27
2018-12-16T10:39:12.152Z,21.32
2018-12-16T10:40:12.150Z,21.27
2018-12-16T10:41:12.231Z,21.32
2018-12-16T10:42:12.158Z,21.30
2018-12-16T10:43:12.165Z,21.27
2018-12-16T10:44:12.167Z,21.36
2018-12-16T10:45:12.184Z,21.30
2018-12-16T10:46:12.257Z,21.35
2018-12-16T10:47:12.178Z,21.39
2018-12-16T10:48:13.261Z,21.25
2018-12-16T10:49:12.183Z,21.25
2018-12-16T10:50:12.184Z,21.25
2018-12-16T10:51:12.195Z,20.97
2018-12-16T10:52:12.188Z,20.51
2018-12-16T10:53:12.192Z,20.21
2018-12-16T10:54:12.196Z,19.96
2018-12-16T10:55:12.200Z,19.94
2018-12-16T10:56:12.202Z,19.89
2018-12-16T10:57:12.204Z,19.63
2018-12-16T10:58:12.204Z,18.99
2018-12-16T10:59:12.211Z,18.80
2018-12-16T11:00:12.218Z,18.56
2018-12-16T11:01:12.206Z,18.45
2018-12-16T11:02:12.227Z,18.59
2018-12-16T11:03:12.212Z,18.62
2018-12-16T11:04:12.220Z,18.75
2018-12-16T11:05:12.222Z,18.81
2018-12-16T11:06:12.230Z,18.88
2018-12-16T11:07:12.239Z,19.07
2018-12-16T11:08:12.233Z,19.14
2018-12-16T11:09:12.232Z,19.31
2018-12-16T11:10:12.241Z,19.27
2018-12-16T11:11:12.232Z,19.41
2018-12-16T11:12:12.248Z,19.55
2018-12-16T11:13:12.245Z,19.59
2018-12-16T11:14:12.255Z,19.76
2018-12-16T11:15:12.249Z,19.85
2018-12-16T11:16:12.260Z,19.84
2018-12-16T11:17:12.261Z,19.92
2018-12-16T11:18:12.258Z,20.02
2018-12-16T11:19:12.265Z,20.03
2018-12-16T11:20:12.268Z,20.04
2018-12-16T11:21:12.271Z,20.07
2018-12-16T11:22:12.285Z,20.14
2018-12-16T11:23:12.272Z,20.31
2018-12-16T11:24:12.279Z,20.32
2018-12-16T11:25:12.267Z,20.32
2018-12-16T11:26:12.285Z,20.40
2018-12-16T11:27:12.277Z,20.52
2018-12-16T11:28:12.282Z,20.51
2018-12-16T11:29:12.277Z,20.60
2018-12-16T11:30:12.291Z,20.63
2018-12-16T11:31:12.291Z,20.75
2018-12-16T11:32:12.301Z,20.72
2018-12-16T11:33:12.293Z,20.66
2018-12-16T11:34:12.302Z,20.74
2018-12-16T11:35:12.297Z,20.85
2018-12-16T11:36:12.305Z,20.82
2018-12-16T11:37:12.425Z,20.90
2018-12-16T11:38:12.315Z,21.02
2018-12-16T11:39:12.313Z,21.02
2018-12-16T11:40:12.317Z,21.03
2018-12-16T11:41:12.468Z,20.97
2018-12-16T11:42:12.325Z,21.14
2018-12-16T11:43:12.338Z,21.09
2018-12-16T11:44:12.336Z,21.25
2018-12-16T11:45:12.833Z,21.20
2018-12-16T11:46:12.333Z,21.22
2018-12-16T11:47:12.339Z,21.35
2018-12-16T11:48:12.342Z,21.25
2018-12-16T11:49:12.346Z,21.29
2018-12-16T11:50:12.349Z,21.43
2018-12-16T11:51:12.469Z,21.37
2018-12-16T11:52:12.347Z,21.43
2018-12-16T11:53:12.351Z,21.45
2018-12-16T11:54:12.363Z,21.51
2018-12-16T11:55:12.958Z,21.51
2018-12-16T11:56:13.795Z,21.61
2018-12-16T11:57:12.430Z,21.48
2018-12-16T11:58:12.375Z,21.52
2018-12-16T11:59:12.373Z,21.52
2018-12-16T12:00:12.384Z,21.57
2018-12-16T12:01:12.379Z,21.61
2018-12-16T12:02:12.385Z,21.55
2018-12-16T12:03:12.421Z,21.58
2018-12-16T12:04:12.393Z,21.64
2018-12-16T12:05:12.417Z,21.66
2018-12-16T12:06:12.395Z,21.72
2018-12-16T12:07:13.343Z,21.73
2018-12-16T12:08:12.413Z,21.72
2018-12-16T12:09:12.420Z,21.70
2018-12-16T12:10:12.418Z,21.72
2018-12-16T12:11:12.421Z,21.75
2018-12-16T12:12:12.418Z,21.73
2018-12-16T12:13:12.431Z,21.73
2018-12-16T12:14:12.431Z,21.79
2018-12-16T12:15:12.434Z,21.72
2018-12-16T12:16:12.442Z,21.70
2018-12-16T12:17:12.460Z,21.82
2018-12-16T12:18:12.440Z,21.83
2018-12-16T12:19:12.440Z,21.83
2018-12-16T12:20:12.441Z,21.77
2018-12-16T12:21:12.513Z,21.79
2018-12-16T12:22:12.455Z,21.82
2018-12-16T12:23:12.460Z,21.76
2018-12-16T12:24:12.458Z,21.85
2018-12-16T12:25:19.530Z,21.89
2018-12-16T12:26:12.465Z,21.85
2018-12-16T12:27:12.482Z,21.85
2018-12-16T12:28:12.470Z,21.73
2018-12-16T12:29:12.485Z,21.88
2018-12-16T12:30:12.477Z,21.85
2018-12-16T12:31:12.491Z,21.76
2018-12-16T12:32:12.492Z,21.69
2018-12-16T12:33:12.482Z,21.75
2018-12-16T12:34:12.493Z,21.70
2018-12-16T12:35:12.505Z,21.72
2018-12-16T12:36:12.500Z,21.75
2018-12-16T12:37:12.504Z,21.67
2018-12-16T12:38:12.508Z,21.73
2018-12-16T12:39:12.508Z,21.70
2018-12-16T12:40:12.512Z,21.66
2018-12-16T12:41:12.520Z,21.69
2018-12-16T12:42:12.517Z,21.69
2018-12-16T12:43:12.519Z,21.67
2018-12-16T12:44:12.530Z,21.70
2018-12-16T12:45:12.531Z,21.79
2018-12-16T12:46:12.537Z,21.73
2018-12-16T12:47:12.542Z,21.70
2018-12-16T12:48:12.546Z,21.73
2018-12-16T12:49:12.543Z,21.69
2018-12-16T12:50:12.548Z,21.70
2018-12-16T12:51:12.555Z,21.73
2018-12-16T12:52:12.555Z,21.76